ANZ248 YSSY-NZWN
Flight info
| Callsign | ANZ248 |
|---|---|
| Flight time | 3h 6m |
| Altitude | 33000 |
| Route | CAWLY M636 TANEN DCT SIMZI |
| Aircraft | A21N/M-SDE2E3FGHIRWXY/LB1 |
Departure
| Time | 2026-04-20 12:26 |
|---|---|
| Airport | Sydney Kingsford Smith International Airport (YSSY) |
Arrival
| Time | 2026-04-20 15:32 |
|---|---|
| Airport | Wellington International Airport (NZWN) |
| Time | Latitude | Longitude | Altitude | Speed | Heading |
|---|---|---|---|---|---|
| 2026-04-20 11:30 | -33.93957 | 151.16412 | 36 ft | 0 kts | 123° |
| 2026-04-20 12:07 | -33.93953 | 151.16405 | 35 ft | 4 kts | 123° |
| 2026-04-20 12:08 | -33.93938 | 151.16377 | 35 ft | 4 kts | 122° |
| 2026-04-20 12:08 | -33.93923 | 151.16350 | 35 ft | 4 kts | 127° |
| 2026-04-20 12:08 | -33.93905 | 151.16328 | 35 ft | 4 kts | 155° |
| 2026-04-20 12:08 | -33.93891 | 151.16326 | 35 ft | 3 kts | 210° |
| 2026-04-20 12:09 | -33.93903 | 151.16319 | 35 ft | 4 kts | 202° |
| 2026-04-20 12:09 | -33.93930 | 151.16310 | 35 ft | 4 kts | 192° |
| 2026-04-20 12:09 | -33.93956 | 151.16304 | 35 ft | 4 kts | 191° |
| 2026-04-20 12:09 | -33.93961 | 151.16303 | 35 ft | 1 kts | 190° |
| 2026-04-20 12:11 | -33.93963 | 151.16302 | 35 ft | 2 kts | 190° |
| 2026-04-20 12:12 | -33.93993 | 151.16295 | 35 ft | 7 kts | 193° |
| 2026-04-20 12:12 | -33.94047 | 151.16280 | 35 ft | 10 kts | 185° |
| 2026-04-20 12:12 | -33.94156 | 151.16315 | 35 ft | 18 kts | 118° |
| 2026-04-20 12:12 | -33.94150 | 151.16466 | 35 ft | 19 kts | 74° |
| 2026-04-20 12:13 | -33.94113 | 151.16623 | 35 ft | 20 kts | 74° |
| 2026-04-20 12:13 | -33.94075 | 151.16782 | 35 ft | 14 kts | 75° |
| 2026-04-20 12:13 | -33.94048 | 151.16900 | 35 ft | 15 kts | 74° |
| 2026-04-20 12:13 | -33.94019 | 151.17018 | 35 ft | 12 kts | 73° |
| 2026-04-20 12:14 | -33.94007 | 151.17068 | 35 ft | 6 kts | 74° |
| 2026-04-20 12:14 | -33.93995 | 151.17120 | 35 ft | 6 kts | 74° |
| 2026-04-20 12:14 | -33.93993 | 151.17130 | 35 ft | 0 kts | 74° |
| 2026-04-20 12:15 | -33.93986 | 151.17157 | 35 ft | 5 kts | 74° |
| 2026-04-20 12:15 | -33.93975 | 151.17203 | 35 ft | 6 kts | 74° |
| 2026-04-20 12:16 | -33.93963 | 151.17254 | 34 ft | 0 kts | 74° |
| 2026-04-20 12:16 | -33.93963 | 151.17255 | 34 ft | 1 kts | 74° |
| 2026-04-20 12:16 | -33.93959 | 151.17272 | 34 ft | 0 kts | 74° |
| 2026-04-20 12:18 | -33.93958 | 151.17279 | 34 ft | 6 kts | 74° |
| 2026-04-20 12:18 | -33.93933 | 151.17383 | 32 ft | 14 kts | 74° |
| 2026-04-20 12:18 | -33.93906 | 151.17501 | 33 ft | 15 kts | 74° |
| 2026-04-20 12:19 | -33.93875 | 151.17630 | 34 ft | 17 kts | 74° |
| 2026-04-20 12:19 | -33.93870 | 151.17759 | 35 ft | 16 kts | 140° |
| 2026-04-20 12:19 | -33.93981 | 151.17801 | 34 ft | 17 kts | 168° |
| 2026-04-20 12:19 | -33.94101 | 151.17831 | 34 ft | 18 kts | 168° |
| 2026-04-20 12:20 | -33.94228 | 151.17864 | 35 ft | 19 kts | 168° |
| 2026-04-20 12:20 | -33.94359 | 151.17898 | 35 ft | 20 kts | 168° |
| 2026-04-20 12:20 | -33.94495 | 151.17886 | 35 ft | 20 kts | 190° |
| 2026-04-20 12:20 | -33.94638 | 151.17912 | 35 ft | 21 kts | 168° |
| 2026-04-20 12:21 | -33.94765 | 151.17945 | 35 ft | 15 kts | 168° |
| 2026-04-20 12:21 | -33.94868 | 151.17971 | 35 ft | 16 kts | 168° |
| 2026-04-20 12:21 | -33.94965 | 151.17997 | 36 ft | 13 kts | 167° |
| 2026-04-20 12:21 | -33.95026 | 151.18013 | 36 ft | 2 kts | 168° |
| 2026-04-20 12:23 | -33.95035 | 151.18015 | 36 ft | 4 kts | 168° |
| 2026-04-20 12:23 | -33.95064 | 151.18025 | 36 ft | 5 kts | 156° |
| 2026-04-20 12:23 | -33.95091 | 151.18058 | 36 ft | 6 kts | 120° |
| 2026-04-20 12:23 | -33.95098 | 151.18115 | 36 ft | 8 kts | 81° |
| 2026-04-20 12:24 | -33.95081 | 151.18204 | 36 ft | 17 kts | 77° |
| 2026-04-20 12:24 | -33.95055 | 151.18348 | 36 ft | 18 kts | 79° |
| 2026-04-20 12:24 | -33.95029 | 151.18501 | 36 ft | 19 kts | 76° |
| 2026-04-20 12:24 | -33.94999 | 151.18662 | 35 ft | 17 kts | 77° |
| 2026-04-20 12:25 | -33.94996 | 151.18804 | 30 ft | 18 kts | 121° |
| 2026-04-20 12:25 | -33.95116 | 151.18867 | 30 ft | 29 kts | 168° |
| 2026-04-20 12:25 | -33.95559 | 151.18982 | 31 ft | 100 kts | 167° |
| 2026-04-20 12:25 | -33.96457 | 151.19215 | 47 ft | 159 kts | 169° |
| 2026-04-20 12:26 | -33.97541 | 151.19508 | 681 ft | 158 kts | 166° |
| 2026-04-20 12:26 | -33.98509 | 151.20151 | 1287 ft | 166 kts | 138° |
| 2026-04-20 12:26 | -33.99180 | 151.21339 | 1691 ft | 178 kts | 122° |
| 2026-04-20 12:26 | -33.99845 | 151.22667 | 2095 ft | 193 kts | 124° |
| 2026-04-20 12:27 | -34.00597 | 151.24086 | 2559 ft | 208 kts | 127° |
| 2026-04-20 12:27 | -34.01603 | 151.25427 | 2924 ft | 227 kts | 143° |
| 2026-04-20 12:27 | -34.02882 | 151.26654 | 3483 ft | 241 kts | 143° |
| 2026-04-20 12:27 | -34.04213 | 151.27920 | 4255 ft | 246 kts | 143° |
| 2026-04-20 12:28 | -34.05565 | 151.29221 | 5068 ft | 250 kts | 143° |
| 2026-04-20 12:28 | -34.06927 | 151.30540 | 5883 ft | 253 kts | 143° |
| 2026-04-20 12:28 | -34.08290 | 151.31865 | 6664 ft | 256 kts | 143° |
| 2026-04-20 12:28 | -34.09701 | 151.33242 | 7446 ft | 260 kts | 143° |
| 2026-04-20 12:29 | -34.11091 | 151.34604 | 8178 ft | 262 kts | 143° |
| 2026-04-20 12:29 | -34.12522 | 151.36006 | 8914 ft | 267 kts | 142° |
| 2026-04-20 12:29 | -34.13810 | 151.37675 | 9609 ft | 273 kts | 126° |
| 2026-04-20 12:29 | -34.14646 | 151.39736 | 10245 ft | 284 kts | 115° |
| 2026-04-20 12:30 | -34.15360 | 151.42015 | 10690 ft | 297 kts | 114° |
| 2026-04-20 12:30 | -34.16116 | 151.44452 | 10982 ft | 315 kts | 114° |
| 2026-04-20 12:30 | -34.16908 | 151.46955 | 11238 ft | 333 kts | 114° |
| 2026-04-20 12:30 | -34.17767 | 151.49634 | 11489 ft | 350 kts | 114° |
| 2026-04-20 12:31 | -34.18663 | 151.52419 | 11926 ft | 360 kts | 114° |
| 2026-04-20 12:31 | -34.19578 | 151.55254 | 12562 ft | 363 kts | 114° |
| 2026-04-20 12:31 | -34.20502 | 151.58109 | 13231 ft | 366 kts | 114° |
| 2026-04-20 12:31 | -34.21436 | 151.60994 | 13854 ft | 370 kts | 114° |
| 2026-04-20 12:32 | -34.22376 | 151.63900 | 14457 ft | 373 kts | 114° |
| 2026-04-20 12:32 | -34.23322 | 151.66828 | 15034 ft | 376 kts | 114° |
| 2026-04-20 12:32 | -34.24277 | 151.69785 | 15605 ft | 379 kts | 114° |
| 2026-04-20 12:32 | -34.25239 | 151.72768 | 16175 ft | 383 kts | 114° |
| 2026-04-20 12:33 | -34.26213 | 151.75778 | 16749 ft | 386 kts | 114° |
| 2026-04-20 12:33 | -34.27191 | 151.78812 | 17291 ft | 389 kts | 114° |
| 2026-04-20 12:33 | -34.28177 | 151.81873 | 17840 ft | 392 kts | 114° |
| 2026-04-20 12:33 | -34.29171 | 151.84961 | 18374 ft | 395 kts | 114° |
| 2026-04-20 12:34 | -34.30170 | 151.88069 | 18893 ft | 398 kts | 114° |
| 2026-04-20 12:34 | -34.31173 | 151.91203 | 19396 ft | 401 kts | 114° |
| 2026-04-20 12:34 | -34.32189 | 151.94363 | 19903 ft | 404 kts | 115° |
| 2026-04-20 12:34 | -34.33423 | 151.97415 | 20361 ft | 404 kts | 122° |
| 2026-04-20 12:35 | -34.34845 | 152.00356 | 20822 ft | 407 kts | 123° |
| 2026-04-20 12:35 | -34.36275 | 152.03275 | 21270 ft | 409 kts | 123° |
| 2026-04-20 12:35 | -34.37750 | 152.06286 | 21732 ft | 412 kts | 123° |
| 2026-04-20 12:35 | -34.39191 | 152.09242 | 22164 ft | 414 kts | 123° |
| 2026-04-20 12:36 | -34.40664 | 152.12258 | 22581 ft | 417 kts | 123° |
| 2026-04-20 12:36 | -34.42139 | 152.15297 | 23004 ft | 420 kts | 123° |
| 2026-04-20 12:36 | -34.43617 | 152.18353 | 23409 ft | 422 kts | 123° |
| 2026-04-20 12:36 | -34.45107 | 152.21433 | 23816 ft | 424 kts | 123° |
| 2026-04-20 12:37 | -34.46607 | 152.24532 | 24214 ft | 427 kts | 123° |
| 2026-04-20 12:37 | -34.48112 | 152.27638 | 24631 ft | 428 kts | 123° |
| 2026-04-20 12:37 | -34.49619 | 152.30756 | 25037 ft | 430 kts | 123° |
| 2026-04-20 12:37 | -34.51129 | 152.33883 | 25454 ft | 430 kts | 124° |
| 2026-04-20 12:38 | -34.52643 | 152.37026 | 25861 ft | 432 kts | 124° |
| 2026-04-20 12:38 | -34.54163 | 152.40181 | 26248 ft | 433 kts | 124° |
| 2026-04-20 12:38 | -34.55683 | 152.43337 | 26638 ft | 434 kts | 124° |
| 2026-04-20 12:38 | -34.57205 | 152.46497 | 27005 ft | 435 kts | 124° |
| 2026-04-20 12:39 | -34.60255 | 152.52847 | 27844 ft | 433 kts | 125° |
| 2026-04-20 12:39 | -34.61761 | 152.55996 | 28326 ft | 430 kts | 125° |
| 2026-04-20 12:39 | -34.63255 | 152.59118 | 28784 ft | 427 kts | 126° |
| 2026-04-20 12:40 | -34.64746 | 152.62232 | 29232 ft | 425 kts | 126° |
| 2026-04-20 12:40 | -34.66208 | 152.65281 | 29641 ft | 423 kts | 126° |
| 2026-04-20 12:40 | -34.67682 | 152.68363 | 30065 ft | 420 kts | 126° |
| 2026-04-20 12:40 | -34.69140 | 152.71421 | 30444 ft | 418 kts | 126° |
| 2026-04-20 12:41 | -34.70594 | 152.74472 | 30807 ft | 416 kts | 126° |
| 2026-04-20 12:41 | -34.72042 | 152.77514 | 31133 ft | 415 kts | 127° |
| 2026-04-20 12:41 | -34.73485 | 152.80542 | 31456 ft | 414 kts | 127° |
| 2026-04-20 12:41 | -34.74921 | 152.83559 | 31740 ft | 412 kts | 127° |
| 2026-04-20 12:42 | -34.76357 | 152.86577 | 32037 ft | 411 kts | 127° |
| 2026-04-20 12:42 | -34.77787 | 152.89578 | 32333 ft | 409 kts | 127° |
| 2026-04-20 12:42 | -34.79211 | 152.92570 | 32586 ft | 408 kts | 127° |
| 2026-04-20 12:42 | -34.80633 | 152.95563 | 32845 ft | 408 kts | 127° |
| 2026-04-20 12:43 | -34.82045 | 152.98541 | 33085 ft | 407 kts | 127° |
| 2026-04-20 12:43 | -34.83456 | 153.01521 | 33319 ft | 406 kts | 127° |
| 2026-04-20 12:43 | -34.84865 | 153.04500 | 33407 ft | 406 kts | 127° |
| 2026-04-20 12:44 | -34.87676 | 153.10447 | 33385 ft | 405 kts | 127° |
| 2026-04-20 12:44 | -34.90483 | 153.16400 | 33380 ft | 405 kts | 127° |
| 2026-04-20 12:45 | -34.93290 | 153.22351 | 33381 ft | 405 kts | 127° |
| 2026-04-20 12:45 | -34.96095 | 153.28319 | 33375 ft | 406 kts | 127° |
| 2026-04-20 12:46 | -34.98901 | 153.34295 | 33368 ft | 405 kts | 127° |
| 2026-04-20 12:46 | -35.01691 | 153.40267 | 33371 ft | 405 kts | 127° |
| 2026-04-20 12:47 | -35.04482 | 153.46234 | 33362 ft | 405 kts | 127° |
| 2026-04-20 12:47 | -35.07275 | 153.52221 | 33362 ft | 406 kts | 127° |
| 2026-04-20 12:48 | -35.10063 | 153.58206 | 33362 ft | 405 kts | 126° |
| 2026-04-20 12:48 | -35.12835 | 153.64165 | 33360 ft | 406 kts | 126° |
| 2026-04-20 12:49 | -35.15626 | 153.70170 | 33360 ft | 406 kts | 126° |
| 2026-04-20 12:49 | -35.18403 | 153.76172 | 33358 ft | 406 kts | 126° |
| 2026-04-20 12:50 | -35.21186 | 153.82188 | 33361 ft | 406 kts | 126° |
| 2026-04-20 12:50 | -35.23963 | 153.88204 | 33357 ft | 406 kts | 126° |
| 2026-04-20 12:51 | -35.26740 | 153.94226 | 33349 ft | 406 kts | 126° |
| 2026-04-20 12:51 | -35.29493 | 154.00206 | 33350 ft | 406 kts | 126° |
| 2026-04-20 12:52 | -35.32264 | 154.06241 | 33349 ft | 406 kts | 126° |
| 2026-04-20 12:52 | -35.35032 | 154.12274 | 33350 ft | 406 kts | 126° |
| 2026-04-20 12:53 | -35.37793 | 154.18307 | 33350 ft | 406 kts | 126° |
| 2026-04-20 12:53 | -35.40553 | 154.24344 | 33340 ft | 406 kts | 126° |
| 2026-04-20 12:54 | -35.43314 | 154.30398 | 33322 ft | 406 kts | 126° |
| 2026-04-20 12:54 | -35.46069 | 154.36440 | 33321 ft | 406 kts | 126° |
| 2026-04-20 12:55 | -35.48804 | 154.42458 | 33320 ft | 406 kts | 126° |
| 2026-04-20 12:55 | -35.51553 | 154.48511 | 33321 ft | 406 kts | 126° |
| 2026-04-20 12:56 | -35.53858 | 154.53596 | 33321 ft | 406 kts | 126° |
| 2026-04-20 12:56 | -35.56641 | 154.59741 | 33316 ft | 406 kts | 126° |
| 2026-04-20 12:57 | -35.59376 | 154.65813 | 33311 ft | 406 kts | 126° |
| 2026-04-20 12:57 | -35.62010 | 154.71956 | 33311 ft | 407 kts | 123° |
| 2026-04-20 12:58 | -35.64547 | 154.78189 | 33311 ft | 407 kts | 123° |
| 2026-04-20 12:58 | -35.67079 | 154.84422 | 33310 ft | 407 kts | 123° |
| 2026-04-20 12:59 | -35.69604 | 154.90654 | 33311 ft | 406 kts | 123° |
| 2026-04-20 12:59 | -35.72125 | 154.96880 | 33301 ft | 406 kts | 123° |
| 2026-04-20 13:00 | -35.74643 | 155.03114 | 33302 ft | 406 kts | 123° |
| 2026-04-20 13:00 | -35.77152 | 155.09339 | 33300 ft | 406 kts | 123° |
| 2026-04-20 13:01 | -35.79665 | 155.15566 | 33300 ft | 406 kts | 123° |
| 2026-04-20 13:01 | -35.82164 | 155.21804 | 33300 ft | 406 kts | 123° |
| 2026-04-20 13:02 | -35.84645 | 155.27993 | 33299 ft | 406 kts | 123° |
| 2026-04-20 13:02 | -35.87139 | 155.34238 | 33291 ft | 405 kts | 123° |
| 2026-04-20 13:03 | -35.89631 | 155.40467 | 33290 ft | 405 kts | 123° |
| 2026-04-20 13:03 | -35.92116 | 155.46708 | 33290 ft | 405 kts | 123° |
| 2026-04-20 13:04 | -35.94196 | 155.51940 | 33289 ft | 405 kts | 123° |
| 2026-04-20 13:04 | -35.96660 | 155.58139 | 33289 ft | 404 kts | 122° |
| 2026-04-20 13:05 | -35.99131 | 155.64378 | 33290 ft | 404 kts | 122° |
| 2026-04-20 13:05 | -36.01594 | 155.70607 | 33283 ft | 403 kts | 122° |
| 2026-04-20 13:06 | -36.04052 | 155.76838 | 33282 ft | 404 kts | 122° |
| 2026-04-20 13:06 | -36.06508 | 155.83068 | 33278 ft | 403 kts | 122° |
| 2026-04-20 13:07 | -36.08960 | 155.89292 | 33279 ft | 403 kts | 122° |
| 2026-04-20 13:07 | -36.11404 | 155.95519 | 33282 ft | 403 kts | 122° |
| 2026-04-20 13:08 | -36.13846 | 156.01761 | 33279 ft | 403 kts | 122° |
| 2026-04-20 13:08 | -36.16283 | 156.08001 | 33279 ft | 403 kts | 122° |
| 2026-04-20 13:09 | -36.18724 | 156.14242 | 33270 ft | 403 kts | 122° |
| 2026-04-20 13:09 | -36.21158 | 156.20495 | 33269 ft | 402 kts | 122° |
| 2026-04-20 13:10 | -36.23584 | 156.26732 | 33269 ft | 402 kts | 122° |
| 2026-04-20 13:10 | -36.26009 | 156.32988 | 33269 ft | 403 kts | 122° |
| 2026-04-20 13:11 | -36.28431 | 156.39241 | 33271 ft | 403 kts | 122° |
| 2026-04-20 13:11 | -36.30832 | 156.45458 | 33271 ft | 402 kts | 122° |
| 2026-04-20 13:12 | -36.33248 | 156.51723 | 33271 ft | 402 kts | 122° |
| 2026-04-20 13:12 | -36.35653 | 156.57977 | 33267 ft | 402 kts | 122° |
| 2026-04-20 13:13 | -36.38056 | 156.64225 | 33259 ft | 401 kts | 121° |
| 2026-04-20 13:13 | -36.40458 | 156.70490 | 33257 ft | 402 kts | 121° |
| 2026-04-20 13:14 | -36.42854 | 156.76750 | 33262 ft | 401 kts | 121° |
| 2026-04-20 13:14 | -36.45243 | 156.83007 | 33253 ft | 401 kts | 121° |
| 2026-04-20 13:15 | -36.47636 | 156.89279 | 33243 ft | 401 kts | 121° |
| 2026-04-20 13:15 | -36.50014 | 156.95545 | 33239 ft | 401 kts | 121° |
| 2026-04-20 13:16 | -36.52394 | 157.01813 | 33241 ft | 400 kts | 121° |
| 2026-04-20 13:16 | -36.54763 | 157.08073 | 33244 ft | 400 kts | 121° |
| 2026-04-20 13:17 | -36.57120 | 157.14299 | 33241 ft | 400 kts | 121° |
| 2026-04-20 13:17 | -36.59476 | 157.20541 | 33240 ft | 400 kts | 121° |
| 2026-04-20 13:18 | -36.61841 | 157.26819 | 33234 ft | 400 kts | 121° |
| 2026-04-20 13:18 | -36.64197 | 157.33090 | 33240 ft | 400 kts | 120° |
| 2026-04-20 13:19 | -36.66552 | 157.39364 | 33238 ft | 400 kts | 120° |
| 2026-04-20 13:19 | -36.68901 | 157.45640 | 33239 ft | 399 kts | 120° |
| 2026-04-20 13:20 | -36.71238 | 157.51909 | 33242 ft | 399 kts | 120° |
| 2026-04-20 13:20 | -36.73579 | 157.58181 | 33239 ft | 399 kts | 120° |
| 2026-04-20 13:21 | -36.75913 | 157.64459 | 33243 ft | 399 kts | 120° |
| 2026-04-20 13:21 | -36.78241 | 157.70733 | 33236 ft | 398 kts | 120° |
| 2026-04-20 13:22 | -36.80567 | 157.77008 | 33234 ft | 398 kts | 120° |
| 2026-04-20 13:22 | -36.82877 | 157.83247 | 33230 ft | 399 kts | 120° |
| 2026-04-20 13:23 | -36.85195 | 157.89535 | 33230 ft | 398 kts | 120° |
| 2026-04-20 13:23 | -36.87508 | 157.95818 | 33230 ft | 399 kts | 120° |
| 2026-04-20 13:24 | -36.89823 | 158.02115 | 33230 ft | 399 kts | 120° |
| 2026-04-20 13:24 | -36.92127 | 158.08383 | 33230 ft | 396 kts | 120° |
| 2026-04-20 13:25 | -36.94428 | 158.14643 | 33231 ft | 396 kts | 120° |
| 2026-04-20 13:25 | -36.96719 | 158.20915 | 33231 ft | 396 kts | 119° |
| 2026-04-20 13:26 | -36.99007 | 158.27179 | 33232 ft | 396 kts | 119° |
| 2026-04-20 13:26 | -37.01288 | 158.33448 | 33230 ft | 396 kts | 119° |
| 2026-04-20 13:27 | -37.03547 | 158.39680 | 33229 ft | 396 kts | 119° |
| 2026-04-20 13:27 | -37.05826 | 158.45964 | 33229 ft | 397 kts | 119° |
| 2026-04-20 13:28 | -37.08090 | 158.52227 | 33233 ft | 396 kts | 119° |
| 2026-04-20 13:28 | -37.10352 | 158.58520 | 33233 ft | 396 kts | 119° |
| 2026-04-20 13:29 | -37.12620 | 158.64810 | 33232 ft | 396 kts | 119° |
| 2026-04-20 13:29 | -37.14882 | 158.71100 | 33230 ft | 396 kts | 119° |
| 2026-04-20 13:30 | -37.17140 | 158.77400 | 33231 ft | 396 kts | 119° |
| 2026-04-20 13:30 | -37.19399 | 158.83708 | 33231 ft | 396 kts | 118° |
| 2026-04-20 13:31 | -37.21646 | 158.90004 | 33231 ft | 395 kts | 118° |
| 2026-04-20 13:31 | -37.23883 | 158.96311 | 33229 ft | 395 kts | 118° |
| 2026-04-20 13:32 | -37.26125 | 159.02615 | 33228 ft | 395 kts | 118° |
| 2026-04-20 13:32 | -37.28365 | 159.08920 | 33231 ft | 395 kts | 118° |
| 2026-04-20 13:33 | -37.30599 | 159.15229 | 33165 ft | 394 kts | 118° |
| 2026-04-20 13:33 | -37.32811 | 159.21486 | 33134 ft | 395 kts | 118° |
| 2026-04-20 13:34 | -37.35037 | 159.27807 | 33131 ft | 395 kts | 118° |
| 2026-04-20 13:34 | -37.37256 | 159.34120 | 33132 ft | 394 kts | 118° |
| 2026-04-20 13:35 | -37.39469 | 159.40423 | 33130 ft | 394 kts | 118° |
| 2026-04-20 13:35 | -37.41678 | 159.46727 | 33131 ft | 393 kts | 118° |
| 2026-04-20 13:36 | -37.43908 | 159.52996 | 33132 ft | 393 kts | 118° |
| 2026-04-20 13:36 | -37.46110 | 159.59276 | 33130 ft | 392 kts | 118° |
| 2026-04-20 13:37 | -37.48297 | 159.65566 | 33131 ft | 392 kts | 118° |
| 2026-04-20 13:37 | -37.50452 | 159.71859 | 33130 ft | 391 kts | 118° |
| 2026-04-20 13:38 | -37.52620 | 159.78140 | 33130 ft | 390 kts | 118° |
| 2026-04-20 13:38 | -37.54785 | 159.84412 | 33130 ft | 390 kts | 118° |
| 2026-04-20 13:39 | -37.56923 | 159.90637 | 33130 ft | 390 kts | 118° |
| 2026-04-20 13:39 | -37.59091 | 159.96888 | 33131 ft | 389 kts | 118° |
| 2026-04-20 13:40 | -37.61237 | 160.03168 | 33130 ft | 389 kts | 118° |
| 2026-04-20 13:40 | -37.63404 | 160.09420 | 33130 ft | 389 kts | 118° |
| 2026-04-20 13:41 | -37.65557 | 160.15705 | 33130 ft | 390 kts | 117° |
| 2026-04-20 13:41 | -37.67686 | 160.21994 | 33130 ft | 390 kts | 117° |
| 2026-04-20 13:42 | -37.69817 | 160.28245 | 33130 ft | 390 kts | 118° |
| 2026-04-20 13:42 | -37.73044 | 160.37697 | 33130 ft | 391 kts | 117° |
| 2026-04-20 13:43 | -37.75175 | 160.44015 | 33129 ft | 391 kts | 117° |
| 2026-04-20 13:43 | -37.77352 | 160.50323 | 33129 ft | 391 kts | 118° |
| 2026-04-20 13:44 | -37.79508 | 160.56652 | 33130 ft | 392 kts | 117° |
| 2026-04-20 13:44 | -37.81625 | 160.63019 | 33130 ft | 393 kts | 117° |
| 2026-04-20 13:45 | -37.83754 | 160.69398 | 33130 ft | 394 kts | 117° |
| 2026-04-20 13:45 | -37.85885 | 160.75788 | 33129 ft | 394 kts | 117° |
| 2026-04-20 13:46 | -37.88031 | 160.82186 | 33130 ft | 395 kts | 117° |
| 2026-04-20 13:46 | -37.90159 | 160.88603 | 33130 ft | 395 kts | 117° |
| 2026-04-20 13:47 | -37.92304 | 160.95020 | 33129 ft | 396 kts | 117° |
| 2026-04-20 13:47 | -37.94426 | 161.01416 | 33130 ft | 397 kts | 117° |
| 2026-04-20 13:48 | -37.96553 | 161.07881 | 33131 ft | 398 kts | 117° |
| 2026-04-20 13:48 | -37.98354 | 161.13292 | 33130 ft | 398 kts | 117° |
| 2026-04-20 13:49 | -38.00513 | 161.19761 | 33130 ft | 398 kts | 116° |
| 2026-04-20 13:49 | -38.02966 | 161.27261 | 33129 ft | 394 kts | 117° |
| 2026-04-20 13:50 | -38.04741 | 161.32644 | 33130 ft | 395 kts | 117° |
| 2026-04-20 13:50 | -38.06863 | 161.39063 | 33131 ft | 396 kts | 117° |
| 2026-04-20 13:51 | -38.08951 | 161.45483 | 33130 ft | 395 kts | 117° |
| 2026-04-20 13:51 | -38.11066 | 161.51942 | 33131 ft | 396 kts | 117° |
| 2026-04-20 13:52 | -38.13173 | 161.58406 | 33130 ft | 396 kts | 117° |
| 2026-04-20 13:52 | -38.15281 | 161.64890 | 33129 ft | 397 kts | 116° |
| 2026-04-20 13:53 | -38.17388 | 161.71375 | 33130 ft | 397 kts | 116° |
| 2026-04-20 13:53 | -38.19480 | 161.77872 | 33130 ft | 397 kts | 116° |
| 2026-04-20 13:54 | -38.21571 | 161.84370 | 33131 ft | 397 kts | 116° |
| 2026-04-20 13:54 | -38.23668 | 161.90872 | 33130 ft | 397 kts | 117° |
| 2026-04-20 13:55 | -38.25770 | 161.97378 | 33130 ft | 397 kts | 116° |
| 2026-04-20 13:55 | -38.27833 | 162.03849 | 33130 ft | 397 kts | 116° |
| 2026-04-20 13:56 | -38.29921 | 162.10366 | 33130 ft | 397 kts | 116° |
| 2026-04-20 13:56 | -38.32012 | 162.16889 | 33130 ft | 398 kts | 116° |
| 2026-04-20 13:57 | -38.34079 | 162.23436 | 33130 ft | 398 kts | 116° |
| 2026-04-20 13:57 | -38.36175 | 162.29974 | 33130 ft | 398 kts | 116° |
| 2026-04-20 13:58 | -38.38244 | 162.36528 | 33130 ft | 398 kts | 116° |
| 2026-04-20 13:58 | -38.40315 | 162.43077 | 33130 ft | 399 kts | 116° |
| 2026-04-20 13:59 | -38.42386 | 162.49637 | 33129 ft | 399 kts | 116° |
| 2026-04-20 13:59 | -38.44439 | 162.56180 | 33131 ft | 400 kts | 116° |
| 2026-04-20 14:00 | -38.46512 | 162.62770 | 33129 ft | 401 kts | 116° |
| 2026-04-20 14:00 | -38.48633 | 162.69351 | 33130 ft | 401 kts | 116° |
| 2026-04-20 14:01 | -38.50722 | 162.75967 | 33130 ft | 402 kts | 116° |
| 2026-04-20 14:01 | -38.52789 | 162.82593 | 33130 ft | 402 kts | 116° |
| 2026-04-20 14:02 | -38.54858 | 162.89237 | 33130 ft | 403 kts | 116° |
| 2026-04-20 14:02 | -38.56923 | 162.95898 | 33130 ft | 404 kts | 115° |
| 2026-04-20 14:03 | -38.58982 | 163.02596 | 33130 ft | 405 kts | 115° |
| 2026-04-20 14:03 | -38.60958 | 163.09350 | 33130 ft | 406 kts | 114° |
| 2026-04-20 14:04 | -38.62888 | 163.16104 | 33130 ft | 407 kts | 114° |
| 2026-04-20 14:04 | -38.64854 | 163.22892 | 33133 ft | 407 kts | 115° |
| 2026-04-20 14:05 | -38.66847 | 163.29678 | 33130 ft | 408 kts | 114° |
| 2026-04-20 14:05 | -38.68825 | 163.36482 | 33131 ft | 408 kts | 114° |
| 2026-04-20 14:06 | -38.70784 | 163.43317 | 33132 ft | 409 kts | 114° |
| 2026-04-20 14:06 | -38.72767 | 163.50147 | 33137 ft | 409 kts | 114° |
| 2026-04-20 14:07 | -38.74745 | 163.56987 | 33140 ft | 409 kts | 114° |
| 2026-04-20 14:07 | -38.76720 | 163.63830 | 33141 ft | 410 kts | 114° |
| 2026-04-20 14:08 | -38.78704 | 163.70628 | 33140 ft | 410 kts | 114° |
| 2026-04-20 14:08 | -38.80672 | 163.77505 | 33148 ft | 411 kts | 114° |
| 2026-04-20 14:09 | -38.82650 | 163.84377 | 33151 ft | 410 kts | 114° |
| 2026-04-20 14:09 | -38.84596 | 163.91250 | 33147 ft | 410 kts | 114° |
| 2026-04-20 14:10 | -38.86546 | 163.98117 | 33150 ft | 410 kts | 114° |
| 2026-04-20 14:10 | -38.88506 | 164.04990 | 33149 ft | 412 kts | 114° |
| 2026-04-20 14:11 | -38.90469 | 164.11943 | 33148 ft | 414 kts | 113° |
| 2026-04-20 14:11 | -38.92441 | 164.18893 | 33150 ft | 414 kts | 113° |
| 2026-04-20 14:12 | -38.94373 | 164.25817 | 33150 ft | 414 kts | 113° |
| 2026-04-20 14:12 | -38.96351 | 164.32761 | 33149 ft | 413 kts | 114° |
| 2026-04-20 14:13 | -38.98337 | 164.39687 | 33149 ft | 413 kts | 113° |
| 2026-04-20 14:13 | -39.00290 | 164.46639 | 33133 ft | 413 kts | 113° |
| 2026-04-20 14:14 | -39.02214 | 164.53562 | 33078 ft | 414 kts | 112° |
| 2026-04-20 14:14 | -39.04145 | 164.60544 | 33072 ft | 414 kts | 112° |
| 2026-04-20 14:15 | -39.05795 | 164.66638 | 33069 ft | 415 kts | 112° |
| 2026-04-20 14:15 | -39.07714 | 164.73640 | 33061 ft | 415 kts | 112° |
| 2026-04-20 14:16 | -39.09661 | 164.80637 | 33060 ft | 415 kts | 112° |
| 2026-04-20 14:16 | -39.11572 | 164.87665 | 33061 ft | 416 kts | 112° |
| 2026-04-20 14:17 | -39.13524 | 164.94667 | 33059 ft | 416 kts | 112° |
| 2026-04-20 14:17 | -39.15432 | 165.01722 | 33060 ft | 417 kts | 111° |
| 2026-04-20 14:18 | -39.17358 | 165.08767 | 33060 ft | 416 kts | 112° |
| 2026-04-20 14:18 | -39.19260 | 165.15785 | 33060 ft | 418 kts | 111° |
| 2026-04-20 14:19 | -39.21172 | 165.22858 | 33060 ft | 417 kts | 112° |
| 2026-04-20 14:19 | -39.23108 | 165.29936 | 33060 ft | 418 kts | 111° |
| 2026-04-20 14:20 | -39.25001 | 165.37037 | 33060 ft | 419 kts | 111° |
| 2026-04-20 14:20 | -39.26919 | 165.44142 | 33061 ft | 420 kts | 111° |
| 2026-04-20 14:21 | -39.28831 | 165.51271 | 33060 ft | 420 kts | 111° |
| 2026-04-20 14:21 | -39.30739 | 165.58357 | 33051 ft | 421 kts | 111° |
| 2026-04-20 14:22 | -39.32648 | 165.65491 | 33050 ft | 421 kts | 111° |
| 2026-04-20 14:22 | -39.34541 | 165.72647 | 33050 ft | 420 kts | 111° |
| 2026-04-20 14:23 | -39.36445 | 165.79804 | 33050 ft | 421 kts | 111° |
| 2026-04-20 14:23 | -39.38359 | 165.86963 | 33051 ft | 421 kts | 111° |
| 2026-04-20 14:24 | -39.40246 | 165.94144 | 33050 ft | 421 kts | 110° |
| 2026-04-20 14:24 | -39.42115 | 166.01317 | 33049 ft | 422 kts | 110° |
| 2026-04-20 14:25 | -39.44001 | 166.08519 | 33051 ft | 424 kts | 110° |
| 2026-04-20 14:25 | -39.45891 | 166.15751 | 33051 ft | 423 kts | 110° |
| 2026-04-20 14:26 | -39.47776 | 166.22968 | 33050 ft | 423 kts | 110° |
| 2026-04-20 14:26 | -39.49641 | 166.30147 | 33050 ft | 424 kts | 110° |
| 2026-04-20 14:27 | -39.51538 | 166.37387 | 33041 ft | 424 kts | 110° |
| 2026-04-20 14:27 | -39.53420 | 166.44619 | 33038 ft | 424 kts | 110° |
| 2026-04-20 14:28 | -39.55262 | 166.51873 | 33040 ft | 424 kts | 109° |
| 2026-04-20 14:28 | -39.57122 | 166.59128 | 33038 ft | 424 kts | 110° |
| 2026-04-20 14:29 | -39.59003 | 166.66385 | 33042 ft | 424 kts | 110° |
| 2026-04-20 14:29 | -39.60849 | 166.73656 | 33042 ft | 424 kts | 110° |
| 2026-04-20 14:30 | -39.62693 | 166.80931 | 33043 ft | 425 kts | 109° |
| 2026-04-20 14:30 | -39.64536 | 166.88226 | 33044 ft | 425 kts | 109° |
| 2026-04-20 14:31 | -39.66380 | 166.95472 | 33044 ft | 425 kts | 109° |
| 2026-04-20 14:31 | -39.68233 | 167.02783 | 33039 ft | 426 kts | 109° |
| 2026-04-20 14:32 | -39.70063 | 167.10098 | 33034 ft | 426 kts | 109° |
| 2026-04-20 14:32 | -39.71907 | 167.17421 | 33029 ft | 426 kts | 109° |
| 2026-04-20 14:33 | -39.73730 | 167.24704 | 33032 ft | 427 kts | 109° |
| 2026-04-20 14:33 | -39.75567 | 167.32044 | 33031 ft | 427 kts | 108° |
| 2026-04-20 14:34 | -39.77378 | 167.39404 | 33032 ft | 427 kts | 108° |
| 2026-04-20 14:34 | -39.79204 | 167.46763 | 33031 ft | 428 kts | 108° |
| 2026-04-20 14:35 | -39.81047 | 167.54110 | 33030 ft | 427 kts | 108° |
| 2026-04-20 14:35 | -39.82849 | 167.61480 | 33031 ft | 427 kts | 108° |
| 2026-04-20 14:36 | -39.84646 | 167.68863 | 33029 ft | 428 kts | 108° |
| 2026-04-20 14:36 | -39.86468 | 167.76238 | 33026 ft | 428 kts | 108° |
| 2026-04-20 14:37 | -39.88269 | 167.83636 | 33020 ft | 428 kts | 108° |
| 2026-04-20 14:37 | -39.89764 | 167.89782 | 33022 ft | 428 kts | 108° |
| 2026-04-20 14:38 | -39.91557 | 167.97183 | 33009 ft | 428 kts | 108° |
| 2026-04-20 14:38 | -39.93349 | 168.04571 | 33000 ft | 428 kts | 107° |
| 2026-04-20 14:39 | -39.95134 | 168.11986 | 32994 ft | 428 kts | 108° |
| 2026-04-20 14:39 | -39.96914 | 168.19386 | 32995 ft | 428 kts | 108° |
| 2026-04-20 14:40 | -39.98683 | 168.26760 | 32986 ft | 428 kts | 108° |
| 2026-04-20 14:40 | -40.00443 | 168.34177 | 32982 ft | 428 kts | 108° |
| 2026-04-20 14:41 | -40.02220 | 168.41583 | 32990 ft | 428 kts | 107° |
| 2026-04-20 14:41 | -40.03984 | 168.48983 | 32996 ft | 427 kts | 107° |
| 2026-04-20 14:42 | -40.05729 | 168.56423 | 32989 ft | 430 kts | 108° |
| 2026-04-20 14:42 | -40.07509 | 168.63847 | 32986 ft | 426 kts | 108° |
| 2026-04-20 14:43 | -40.09259 | 168.71214 | 32987 ft | 426 kts | 107° |
| 2026-04-20 14:43 | -40.10994 | 168.78617 | 33003 ft | 426 kts | 108° |
| 2026-04-20 14:44 | -40.12708 | 168.85979 | 33031 ft | 425 kts | 107° |
| 2026-04-20 14:44 | -40.14399 | 168.93385 | 33034 ft | 425 kts | 107° |
| 2026-04-20 14:45 | -40.16098 | 169.00799 | 33041 ft | 425 kts | 107° |
| 2026-04-20 14:45 | -40.17806 | 169.08193 | 33043 ft | 425 kts | 107° |
| 2026-04-20 14:46 | -40.19516 | 169.15580 | 33043 ft | 424 kts | 107° |
| 2026-04-20 14:46 | -40.21211 | 169.22978 | 33042 ft | 424 kts | 107° |
| 2026-04-20 14:47 | -40.22891 | 169.30324 | 33049 ft | 424 kts | 107° |
| 2026-04-20 14:48 | -40.25421 | 169.41419 | 33050 ft | 424 kts | 107° |
| 2026-04-20 14:48 | -40.27107 | 169.48827 | 33050 ft | 424 kts | 107° |
| 2026-04-20 14:49 | -40.28788 | 169.56227 | 33050 ft | 424 kts | 107° |
| 2026-04-20 14:49 | -40.30455 | 169.63637 | 33050 ft | 424 kts | 107° |
| 2026-04-20 14:50 | -40.32108 | 169.71005 | 33050 ft | 424 kts | 107° |
| 2026-04-20 14:50 | -40.33769 | 169.78403 | 33050 ft | 423 kts | 107° |
| 2026-04-20 14:51 | -40.35423 | 169.85800 | 33042 ft | 423 kts | 107° |
| 2026-04-20 14:51 | -40.37076 | 169.93205 | 33042 ft | 423 kts | 107° |
| 2026-04-20 14:52 | -40.38710 | 170.00616 | 33043 ft | 423 kts | 107° |
| 2026-04-20 14:52 | -40.40353 | 170.08031 | 33040 ft | 423 kts | 107° |
| 2026-04-20 14:53 | -40.41982 | 170.15445 | 33039 ft | 422 kts | 106° |
| 2026-04-20 14:53 | -40.43614 | 170.22856 | 33044 ft | 422 kts | 106° |
| 2026-04-20 14:54 | -40.45223 | 170.30219 | 33041 ft | 422 kts | 106° |
| 2026-04-20 14:54 | -40.46848 | 170.37649 | 33041 ft | 422 kts | 106° |
| 2026-04-20 14:55 | -40.48463 | 170.45076 | 33042 ft | 423 kts | 106° |
| 2026-04-20 14:55 | -40.50073 | 170.52494 | 33034 ft | 422 kts | 106° |
| 2026-04-20 14:56 | -40.51829 | 170.59863 | 33031 ft | 423 kts | 109° |
| 2026-04-20 14:56 | -40.53693 | 170.67151 | 33032 ft | 423 kts | 109° |
| 2026-04-20 14:57 | -40.55076 | 170.72512 | 33029 ft | 423 kts | 109° |
| 2026-04-20 14:57 | -40.56944 | 170.79843 | 33026 ft | 423 kts | 108° |
| 2026-04-20 14:58 | -40.58808 | 170.87178 | 33032 ft | 423 kts | 109° |
| 2026-04-20 14:58 | -40.60671 | 170.94523 | 33031 ft | 423 kts | 109° |
| 2026-04-20 14:59 | -40.62532 | 171.01872 | 33023 ft | 423 kts | 108° |
| 2026-04-20 14:59 | -40.64380 | 171.09237 | 33022 ft | 423 kts | 108° |
| 2026-04-20 15:00 | -40.66231 | 171.16592 | 33021 ft | 423 kts | 108° |
| 2026-04-20 15:00 | -40.68076 | 171.23979 | 33021 ft | 424 kts | 108° |
| 2026-04-20 15:01 | -40.69912 | 171.31348 | 33019 ft | 423 kts | 108° |
| 2026-04-20 15:01 | -40.71749 | 171.38707 | 33020 ft | 423 kts | 108° |
| 2026-04-20 15:02 | -40.73572 | 171.46076 | 33018 ft | 423 kts | 108° |
| 2026-04-20 15:02 | -40.75399 | 171.53441 | 33012 ft | 423 kts | 108° |
| 2026-04-20 15:03 | -40.77232 | 171.60808 | 33011 ft | 423 kts | 108° |
| 2026-04-20 15:03 | -40.79047 | 171.68189 | 33009 ft | 423 kts | 108° |
| 2026-04-20 15:04 | -40.80839 | 171.75523 | 33011 ft | 423 kts | 108° |
| 2026-04-20 15:04 | -40.82637 | 171.82914 | 33006 ft | 423 kts | 108° |
| 2026-04-20 15:05 | -40.84445 | 171.90316 | 33003 ft | 423 kts | 108° |
| 2026-04-20 15:05 | -40.86230 | 171.97708 | 32998 ft | 423 kts | 108° |
| 2026-04-20 15:06 | -40.88020 | 172.05131 | 32998 ft | 425 kts | 108° |
| 2026-04-20 15:06 | -40.89810 | 172.12585 | 32998 ft | 425 kts | 108° |
| 2026-04-20 15:07 | -40.91605 | 172.20039 | 32991 ft | 426 kts | 108° |
| 2026-04-20 15:07 | -40.93395 | 172.27483 | 32995 ft | 421 kts | 108° |
| 2026-04-20 15:08 | -40.95139 | 172.34795 | 32964 ft | 416 kts | 108° |
| 2026-04-20 15:08 | -40.96899 | 172.42184 | 32924 ft | 422 kts | 108° |
| 2026-04-20 15:09 | -40.98658 | 172.49621 | 32908 ft | 423 kts | 108° |
| 2026-04-20 15:09 | -41.00405 | 172.57017 | 32907 ft | 424 kts | 108° |
| 2026-04-20 15:10 | -41.02162 | 172.64459 | 32944 ft | 423 kts | 108° |
| 2026-04-20 15:10 | -41.03926 | 172.71904 | 32953 ft | 423 kts | 108° |
| 2026-04-20 15:11 | -41.05673 | 172.79367 | 32946 ft | 424 kts | 107° |
| 2026-04-20 15:11 | -41.07403 | 172.86847 | 32943 ft | 424 kts | 107° |
| 2026-04-20 15:12 | -41.09139 | 172.94317 | 32941 ft | 424 kts | 107° |
| 2026-04-20 15:12 | -41.09994 | 172.97994 | 32694 ft | 420 kts | 107° |
| 2026-04-20 15:12 | -41.10856 | 173.01689 | 32141 ft | 419 kts | 107° |
| 2026-04-20 15:12 | -41.11709 | 173.05384 | 31431 ft | 419 kts | 107° |
| 2026-04-20 15:13 | -41.12558 | 173.09076 | 30692 ft | 419 kts | 107° |
| 2026-04-20 15:13 | -41.13408 | 173.12781 | 29949 ft | 419 kts | 107° |
| 2026-04-20 15:13 | -41.14256 | 173.16471 | 29171 ft | 418 kts | 107° |
| 2026-04-20 15:13 | -41.15103 | 173.20161 | 28441 ft | 418 kts | 107° |
| 2026-04-20 15:14 | -41.15947 | 173.23844 | 27755 ft | 415 kts | 107° |
| 2026-04-20 15:14 | -41.16788 | 173.27502 | 27076 ft | 414 kts | 107° |
| 2026-04-20 15:14 | -41.17616 | 173.31101 | 26399 ft | 411 kts | 107° |
| 2026-04-20 15:14 | -41.18452 | 173.34769 | 25724 ft | 409 kts | 107° |
| 2026-04-20 15:15 | -41.19258 | 173.38321 | 25088 ft | 406 kts | 107° |
| 2026-04-20 15:15 | -41.20077 | 173.41901 | 24434 ft | 403 kts | 107° |
| 2026-04-20 15:15 | -41.20885 | 173.45458 | 23757 ft | 401 kts | 107° |
| 2026-04-20 15:15 | -41.21686 | 173.48989 | 23091 ft | 398 kts | 107° |
| 2026-04-20 15:16 | -41.22482 | 173.52496 | 22452 ft | 395 kts | 107° |
| 2026-04-20 15:16 | -41.23266 | 173.55979 | 21787 ft | 393 kts | 107° |
| 2026-04-20 15:16 | -41.24049 | 173.59445 | 21113 ft | 391 kts | 107° |
| 2026-04-20 15:16 | -41.24825 | 173.62897 | 20464 ft | 388 kts | 107° |
| 2026-04-20 15:17 | -41.25594 | 173.66309 | 19835 ft | 385 kts | 107° |
| 2026-04-20 15:17 | -41.26360 | 173.69716 | 19235 ft | 382 kts | 107° |
| 2026-04-20 15:17 | -41.27117 | 173.73094 | 18654 ft | 381 kts | 107° |
| 2026-04-20 15:17 | -41.27868 | 173.76456 | 18079 ft | 379 kts | 107° |
| 2026-04-20 15:18 | -41.28619 | 173.79815 | 17525 ft | 377 kts | 107° |
| 2026-04-20 15:18 | -41.29368 | 173.83163 | 16946 ft | 376 kts | 107° |
| 2026-04-20 15:18 | -41.30103 | 173.86453 | 16386 ft | 376 kts | 107° |
| 2026-04-20 15:18 | -41.30846 | 173.89777 | 15824 ft | 374 kts | 107° |
| 2026-04-20 15:19 | -41.31529 | 173.93105 | 15284 ft | 372 kts | 102° |
| 2026-04-20 15:19 | -41.31640 | 173.96518 | 14771 ft | 371 kts | 84° |
| 2026-04-20 15:19 | -41.30991 | 173.99828 | 14262 ft | 371 kts | 72° |
| 2026-04-20 15:19 | -41.30100 | 174.03048 | 13740 ft | 369 kts | 71° |
| 2026-04-20 15:20 | -41.29194 | 174.06243 | 13218 ft | 368 kts | 71° |
| 2026-04-20 15:20 | -41.28303 | 174.09415 | 12705 ft | 364 kts | 71° |
| 2026-04-20 15:20 | -41.27435 | 174.12531 | 12187 ft | 356 kts | 71° |
| 2026-04-20 15:20 | -41.26582 | 174.15587 | 11671 ft | 350 kts | 71° |
| 2026-04-20 15:21 | -41.25744 | 174.18590 | 11249 ft | 341 kts | 71° |
| 2026-04-20 15:21 | -41.24927 | 174.21486 | 11010 ft | 328 kts | 72° |
| 2026-04-20 15:21 | -41.24147 | 174.24267 | 10820 ft | 314 kts | 73° |
| 2026-04-20 15:21 | -41.23400 | 174.26937 | 10645 ft | 300 kts | 73° |
| 2026-04-20 15:22 | -41.22690 | 174.29486 | 10483 ft | 287 kts | 73° |
| 2026-04-20 15:22 | -41.22015 | 174.31944 | 10160 ft | 280 kts | 74° |
| 2026-04-20 15:22 | -41.21357 | 174.34367 | 9695 ft | 279 kts | 75° |
| 2026-04-20 15:22 | -41.20696 | 174.36774 | 9246 ft | 277 kts | 75° |
| 2026-04-20 15:23 | -41.20036 | 174.39166 | 8830 ft | 274 kts | 76° |
| 2026-04-20 15:23 | -41.19385 | 174.41507 | 8455 ft | 272 kts | 75° |
| 2026-04-20 15:23 | -41.18726 | 174.43861 | 8093 ft | 271 kts | 76° |
| 2026-04-20 15:23 | -41.18072 | 174.46212 | 7749 ft | 273 kts | 76° |
| 2026-04-20 15:24 | -41.17411 | 174.48560 | 7402 ft | 270 kts | 75° |
| 2026-04-20 15:24 | -41.16741 | 174.50882 | 7049 ft | 269 kts | 76° |
| 2026-04-20 15:24 | -41.16088 | 174.53204 | 6690 ft | 269 kts | 76° |
| 2026-04-20 15:24 | -41.15430 | 174.55535 | 6322 ft | 269 kts | 76° |
| 2026-04-20 15:25 | -41.14775 | 174.57855 | 5963 ft | 266 kts | 76° |
| 2026-04-20 15:25 | -41.14130 | 174.60136 | 5613 ft | 263 kts | 77° |
| 2026-04-20 15:25 | -41.13497 | 174.62405 | 5271 ft | 261 kts | 77° |
| 2026-04-20 15:25 | -41.12863 | 174.64665 | 4938 ft | 261 kts | 76° |
| 2026-04-20 15:26 | -41.12451 | 174.66138 | 4781 ft | 253 kts | 79° |
| 2026-04-20 15:26 | -41.12165 | 174.68349 | 4533 ft | 237 kts | 101° |
| 2026-04-20 15:26 | -41.12628 | 174.70361 | 4202 ft | 224 kts | 125° |
| 2026-04-20 15:26 | -41.13584 | 174.71935 | 3960 ft | 214 kts | 136° |
| 2026-04-20 15:27 | -41.14571 | 174.73337 | 3792 ft | 202 kts | 136° |
| 2026-04-20 15:27 | -41.15481 | 174.74652 | 3641 ft | 183 kts | 135° |
| 2026-04-20 15:27 | -41.16267 | 174.75883 | 3580 ft | 166 kts | 132° |
| 2026-04-20 15:27 | -41.16928 | 174.77066 | 3482 ft | 155 kts | 130° |
| 2026-04-20 15:28 | -41.17507 | 174.78264 | 3225 ft | 154 kts | 127° |
| 2026-04-20 15:28 | -41.18111 | 174.79398 | 2969 ft | 147 kts | 136° |
| 2026-04-20 15:28 | -41.18860 | 174.80277 | 2727 ft | 140 kts | 147° |
| 2026-04-20 15:28 | -41.19689 | 174.80899 | 2525 ft | 136 kts | 157° |
| 2026-04-20 15:29 | -41.20581 | 174.81293 | 2327 ft | 135 kts | 166° |
| 2026-04-20 15:29 | -41.21510 | 174.81435 | 2110 ft | 134 kts | 175° |
| 2026-04-20 15:29 | -41.22416 | 174.81380 | 1971 ft | 128 kts | 180° |
| 2026-04-20 15:29 | -41.23306 | 174.81320 | 1846 ft | 127 kts | 179° |
| 2026-04-20 15:30 | -41.24193 | 174.81262 | 1717 ft | 127 kts | 179° |
| 2026-04-20 15:30 | -41.25068 | 174.81202 | 1608 ft | 125 kts | 180° |
| 2026-04-20 15:30 | -41.25936 | 174.81144 | 1426 ft | 125 kts | 179° |
| 2026-04-20 15:30 | -41.26805 | 174.81088 | 1225 ft | 124 kts | 180° |
| 2026-04-20 15:31 | -41.27664 | 174.81029 | 1023 ft | 123 kts | 180° |
| 2026-04-20 15:31 | -41.28515 | 174.80972 | 826 ft | 125 kts | 180° |
| 2026-04-20 15:31 | -41.29381 | 174.80917 | 647 ft | 124 kts | 178° |
| 2026-04-20 15:31 | -41.30249 | 174.80861 | 419 ft | 126 kts | 178° |
| 2026-04-20 15:32 | -41.31123 | 174.80788 | 238 ft | 127 kts | 176° |
| 2026-04-20 15:32 | -41.32015 | 174.80732 | 61 ft | 126 kts | 179° |
| 2026-04-20 15:32 | -41.32735 | 174.80690 | 32 ft | 65 kts | 183° |
| 2026-04-20 15:32 | -41.32982 | 174.80674 | 33 ft | 27 kts | 184° |
| 2026-04-20 15:33 | -41.33094 | 174.80667 | 31 ft | 13 kts | 166° |
| 2026-04-20 15:33 | -41.33118 | 174.80733 | 32 ft | 6 kts | 106° |
| 2026-04-20 15:33 | -41.33095 | 174.80785 | 32 ft | 9 kts | 22° |
| 2026-04-20 15:33 | -41.33010 | 174.80796 | 32 ft | 15 kts | 1° |
| 2026-04-20 15:34 | -41.32900 | 174.80803 | 32 ft | 17 kts | 3° |
| 2026-04-20 15:34 | -41.32786 | 174.80811 | 32 ft | 13 kts | 3° |
| 2026-04-20 15:34 | -41.32717 | 174.80871 | 32 ft | 13 kts | 66° |
| 2026-04-20 15:34 | -41.32699 | 174.80960 | 32 ft | 2 kts | 91° |
| 2026-04-20 15:35 | -41.32701 | 174.80996 | 32 ft | 5 kts | 93° |
| 2026-04-20 15:35 | -41.32701 | 174.81007 | 32 ft | 0 kts | 93° |
| 2026-04-20 15:35 | -41.32701 | 174.81014 | 32 ft | 0 kts | 93° |
| 2026-04-20 15:35 | -41.32702 | 174.81027 | 32 ft | 0 kts | 93° |
| 2026-04-20 15:36 | -41.32703 | 174.81043 | 32 ft | 3 kts | 93° |
| 2026-04-20 15:36 | -41.32715 | 174.81071 | 32 ft | 5 kts | 163° |
| 2026-04-20 15:36 | -41.32724 | 174.81071 | 32 ft | 2 kts | 174° |
| 2026-04-20 15:37 | -41.32739 | 174.81072 | 32 ft | 2 kts | 182° |
| 2026-04-20 15:37 | -41.32747 | 174.81071 | 32 ft | 0 kts | 184° |
| 2026-04-20 15:37 | -41.32748 | 174.81071 | 32 ft | 0 kts | 184° |